This is the latest recevied weather packets stored in our database for station/object N6GPM. If no packets are shown the sender has not sent any weather packets the latest 10 day(s).
| Time | Temp. | Humidity | Pressure | Rain* | Wind** | Luminosity | Snow |
|---|---|---|---|---|---|---|---|
| 1777511975 | 20.56° C | 52% | 1017.3 hPa | 0 mm | - | 49 W/m² | - |
| 1777511673 | 20° C | 52% | 1017.3 hPa | 0 mm | - | 78 W/m² | - |
| 1777511371 | 20.56° C | 50% | 1017 hPa | 0 mm | - | 107 W/m² | - |
| 1777511067 | 20.56° C | 48% | 1017 hPa | 0 mm | - | 55 W/m² | - |
| 1777510762 | 20.56° C | 51% | 1017.5 hPa | 0 mm | - | 141 W/m² | - |
| 1777510460 | 21.11° C | 49% | 1017.3 hPa | 0 mm | - | 61 W/m² | - |
| 1777510155 | 21.11° C | 49% | 1017.4 hPa | 0 mm | - | 169 W/m² | - |
| 1777509852 | 21.11° C | 49% | 1017.4 hPa | 0 mm | - | 167 W/m² | - |
| 1777509547 | 21.67° C | 48% | 1017.4 hPa | 0 mm | - | 219 W/m² | - |
| 1777509245 | 21.67° C | 47% | 1017.2 hPa | 0 mm | - | 225 W/m² | - |
| 1777508942 | 21.67° C | 49% | 1017.4 hPa | 0 mm | - | 229 W/m² | - |
| 1777508638 | 21.67° C | 47% | 1017.4 hPa | 0 mm | - | 225 W/m² | - |
| 1777508336 | 21.67° C | 48% | 1017.4 hPa | 0 mm | - | 275 W/m² | - |
| 1777508033 | 21.67° C | 47% | 1017.3 hPa | 0 mm | - | 269 W/m² | - |
| 1777507729 | 22.22° C | 46% | 1017.7 hPa | 0 mm | - | 298 W/m² | - |
| 1777507426 | 22.22° C | 46% | 1017.5 hPa | 0 mm | - | 339 W/m² | - |
| 1777507123 | 22.22° C | 46% | 1017.2 hPa | 0 mm | - | 343 W/m² | - |
| 1777506822 | 22.22° C | 46% | 1017.4 hPa | 0 mm | - | 373 W/m² | - |
| 1777506518 | 22.22° C | 46% | 1017 hPa | 0 mm | - | 395 W/m² | - |
| 1777506213 | 22.22° C | 45% | 1017.3 hPa | 0 mm | - | 398 W/m² | - |
| 1777505910 | 22.22° C | 45% | 1017.3 hPa | 0 mm | - | 420 W/m² | - |
| 1777505606 | 22.78° C | 45% | 1017 hPa | 0 mm | - | 435 W/m² | - |
| 1777505303 | 22.78° C | 45% | 1017.2 hPa | 0 mm | - | 432 W/m² | - |
| 1777505000 | 22.78° C | 45% | 1017.4 hPa | 0 mm | - | 452 W/m² | - |
| 1777504696 | 22.78° C | 44% | 1017.3 hPa | 0 mm | - | 462 W/m² | - |
* Rain latest hour (hover to see other rain measurements)
** Current wind speed in m/s (hover to see current wind gust speed)